Time;durP1;ratioP1;P1;durP2;ratioP2;P2;SDS_P1;SDS_P2;PMS_P1;PMS_P2;Temp;Humidity;BMP_temperature;BMP_pressure;BME280_temperature;BME280_humidity;BME280_pressure;Samples;Min_cycle;Max_cycle;Signal;HPM_P1;HPM_P2
2022/04/15 00:01:37;;;;;;;15.70;6.47;;;;;;;8.22;89.97;101629.50;6003917;28;20034;-70
2022/04/15 00:04:34;;;;;;;11.40;5.15;;;;;;;8.20;88.90;101637.56;6004882;28;20109;-70
2022/04/15 00:07:29;;;;;;;9.73;5.35;;;;;;;8.23;88.24;101631.22;6004535;28;20078;-69
2022/04/15 00:10:27;;;;;;;14.60;5.30;;;;;;;8.17;87.77;101640.41;6004316;28;20034;-69
2022/04/15 00:13:24;;;;;;;12.30;5.35;;;;;;;8.21;88.46;101638.38;6005251;28;20095;-70
2022/04/15 00:16:19;;;;;;;10.65;4.80;;;;;;;8.20;87.94;101632.28;6004394;28;20045;-70
2022/04/15 00:19:15;;;;;;;15.03;5.40;;;;;;;8.15;87.80;101636.19;6004322;28;20039;-70
2022/04/15 00:22:10;;;;;;;14.68;6.18;;;;;;;8.05;87.46;101643.03;6003974;28;20046;-70
2022/04/15 00:25:07;;;;;;;11.53;4.87;;;;;;;7.97;87.52;101640.94;6004464;28;20154;-69
2022/04/15 00:28:02;;;;;;;13.90;5.18;;;;;;;7.95;87.21;101650.78;6004022;28;20041;-70
2022/04/15 00:30:58;;;;;;;13.07;5.28;;;;;;;8.00;87.76;101650.44;6002699;28;20046;-70
2022/04/15 00:33:53;;;;;;;11.82;5.95;;;;;;;7.96;87.46;101649.00;6002014;28;20042;-70
2022/04/15 00:36:49;;;;;;;11.90;5.40;;;;;;;7.93;86.93;101665.03;6001047;28;20058;-70
2022/04/15 00:39:46;;;;;;;10.63;5.20;;;;;;;7.85;86.97;101657.66;6002114;28;20294;-70
2022/04/15 00:42:41;;;;;;;12.00;5.20;;;;;;;7.80;87.21;101655.31;6001273;28;20054;-70
2022/04/15 00:45:36;;;;;;;9.18;5.13;;;;;;;7.75;87.04;101662.69;6002413;28;20054;-70
2022/04/15 00:48:31;;;;;;;12.00;5.07;;;;;;;7.68;86.84;101665.88;5989806;28;20093;-70
2022/04/15 00:51:27;;;;;;;10.20;4.70;;;;;;;7.67;86.78;101669.44;6002700;28;20054;-69
2022/04/15 00:54:28;;;;;;;10.30;5.13;;;;;;;7.50;86.48;101664.47;5998897;28;20274;-70
2022/04/15 00:57:25;;;;;;;13.52;5.03;;;;;;;7.49;86.38;101670.69;6018316;28;20043;-69
2022/04/15 01:00:22;;;;;;;11.00;5.13;;;;;;;7.55;86.75;101667.66;5985570;28;20035;-70
2022/04/15 01:03:17;;;;;;;10.32;5.53;;;;;;;7.42;86.86;101674.69;6004075;28;20033;-70
2022/04/15 01:06:13;;;;;;;12.88;5.15;;;;;;;7.43;86.87;101665.81;5985504;28;20042;-70
2022/04/15 01:09:10;;;;;;;8.95;4.60;;;;;;;7.40;86.22;101666.88;6003463;28;20062;-70
2022/04/15 01:12:05;;;;;;;10.60;4.90;;;;;;;7.39;85.64;101667.00;5978583;28;20041;-69
2022/04/15 01:15:03;;;;;;;12.25;4.43;;;;;;;7.47;86.20;101673.44;6003447;28;20023;-70
2022/04/15 01:17:58;;;;;;;10.15;5.50;;;;;;;7.47;86.15;101677.88;6002569;28;20490;-70
2022/04/15 01:20:54;;;;;;;9.67;4.20;;;;;;;7.35;86.97;101668.13;6002320;28;20031;-70
2022/04/15 01:23:50;;;;;;;8.63;4.43;;;;;;;7.36;86.72;101680.38;6003197;28;20034;-70
2022/04/15 01:26:45;;;;;;;8.45;3.70;;;;;;;7.34;85.90;101671.72;6003084;28;20286;-71
2022/04/15 01:29:41;;;;;;;9.05;3.80;;;;;;;7.41;85.52;101679.13;6002434;28;20047;-69
2022/04/15 01:32:36;;;;;;;8.77;4.03;;;;;;;7.42;86.27;101669.44;6002484;28;20038;-69
2022/04/15 01:35:33;;;;;;;8.97;3.83;;;;;;;7.40;85.70;101676.56;6003535;28;20458;-70
2022/04/15 01:38:28;;;;;;;7.78;3.50;;;;;;;7.39;85.54;101669.63;6003166;28;20270;-70
2022/04/15 01:41:24;;;;;;;8.82;4.05;;;;;;;7.39;86.23;101667.00;6001986;28;20069;-71
2022/04/15 01:44:19;;;;;;;8.07;3.92;;;;;;;7.38;84.97;101667.94;6005495;28;20141;-70
2022/04/15 01:47:16;;;;;;;8.70;4.13;;;;;;;7.44;85.22;101672.81;6007000;28;20066;-70
2022/04/15 01:50:11;;;;;;;8.38;4.13;;;;;;;7.42;85.27;101669.44;6001690;28;20125;-70
2022/04/15 01:53:07;;;;;;;8.63;4.50;;;;;;;7.47;85.60;101680.50;6003002;28;20587;-70
2022/04/15 01:56:05;;;;;;;9.27;4.45;;;;;;;7.36;84.78;101675.97;6001771;28;20035;-70
2022/04/15 01:59:01;;;;;;;9.35;4.82;;;;;;;7.38;84.62;101667.94;6003004;28;20030;-70
2022/04/15 02:01:56;;;;;;;9.63;4.10;;;;;;;7.37;84.28;101669.72;6001645;28;20057;-70
2022/04/15 02:04:51;;;;;;;11.53;4.13;;;;;;;7.44;84.96;101678.06;6002654;28;20038;-70
2022/04/15 02:07:47;;;;;;;9.90;4.10;;;;;;;7.50;84.76;101669.75;6016593;28;20096;-70
2022/04/15 02:10:42;;;;;;;9.10;4.50;;;;;;;7.48;84.63;101679.56;6001134;28;20054;-70
2022/04/15 02:13:37;;;;;;;7.87;4.30;;;;;;;7.47;84.27;101672.59;6002852;28;20398;-69
2022/04/15 02:16:33;;;;;;;10.73;4.50;;;;;;;7.49;83.42;101673.34;6001832;28;20038;-70
2022/04/15 02:19:29;;;;;;;9.20;4.18;;;;;;;7.48;84.03;101684.81;6002452;28;20078;-70
2022/04/15 02:22:24;;;;;;;11.43;5.23;;;;;;;7.41;84.05;101678.28;6001121;28;20077;-69
2022/04/15 02:25:19;;;;;;;8.50;4.47;;;;;;;7.43;84.25;101676.38;6001216;28;20039;-70
2022/04/15 02:28:15;;;;;;;8.48;3.97;;;;;;;7.42;83.30;101679.97;5999963;28;20038;-69
2022/04/15 02:31:10;;;;;;;13.33;4.70;;;;;;;7.37;84.27;101677.63;5999193;28;20038;-70
2022/04/15 02:34:05;;;;;;;10.77;4.73;;;;;;;7.45;83.05;101685.88;6000636;28;20034;-70
2022/04/15 02:37:01;;;;;;;8.40;4.30;;;;;;;7.48;83.60;101682.19;6000831;28;20088;-70
2022/04/15 02:39:56;;;;;;;10.03;4.30;;;;;;;7.44;83.21;101686.00;5999735;28;20031;-69
2022/04/15 02:42:51;;;;;;;10.73;4.37;;;;;;;7.47;83.52;101693.72;6001107;28;20042;-70
2022/04/15 02:45:47;;;;;;;9.03;3.97;;;;;;;7.45;83.42;101691.16;6019339;28;20513;-70
2022/04/15 02:48:42;;;;;;;9.23;4.45;;;;;;;7.46;83.32;101694.66;6006415;28;20035;-70
2022/04/15 02:51:37;;;;;;;8.13;4.50;;;;;;;7.42;83.44;101687.91;6006294;28;20034;-69
2022/04/15 02:54:32;;;;;;;9.23;4.47;;;;;;;7.46;83.17;101698.13;6006251;28;20479;-70
2022/04/15 02:57:28;;;;;;;11.03;5.23;;;;;;;7.46;82.80;101697.28;6006731;28;20401;-70
2022/04/15 03:00:23;;;;;;;11.00;5.07;;;;;;;7.47;83.14;101686.66;6005424;28;20046;-70
2022/04/15 03:03:19;;;;;;;10.40;5.10;;;;;;;7.47;83.24;101701.63;6005952;28;20058;-70
2022/04/15 03:06:14;;;;;;;11.13;5.38;;;;;;;7.34;82.61;101695.47;6006009;28;20054;-71
2022/04/15 03:09:10;;;;;;;10.60;5.55;;;;;;;7.38;82.27;101699.59;6005844;28;20158;-70
2022/04/15 03:12:05;;;;;;;12.03;5.57;;;;;;;7.40;82.17;101697.69;6005568;28;20041;-70
2022/04/15 03:15:01;;;;;;;8.95;5.18;;;;;;;7.30;83.28;101702.75;6005837;28;20035;-70
2022/04/15 03:17:57;;;;;;;10.45;5.25;;;;;;;7.30;83.49;101691.34;5984797;28;20039;-71
2022/04/15 03:20:52;;;;;;;8.40;4.60;;;;;;;7.27;83.68;101702.09;6004927;28;20057;-70
2022/04/15 03:23:48;;;;;;;10.05;5.30;;;;;;;7.29;83.91;101700.19;6008271;28;20026;-69
2022/04/15 03:26:43;;;;;;;11.27;5.45;;;;;;;7.31;84.02;101703.59;6005206;28;20433;-70
2022/04/15 03:29:38;;;;;;;10.85;5.22;;;;;;;7.31;84.07;101708.88;6001423;28;20135;-70
2022/04/15 03:32:34;;;;;;;11.70;5.03;;;;;;;7.30;84.88;101707.16;6004505;28;20042;-70
2022/04/15 03:35:29;;;;;;;9.80;4.70;;;;;;;7.24;84.50;101705.78;6005805;28;20049;-70
2022/04/15 03:38:24;;;;;;;8.07;4.13;;;;;;;7.24;84.41;101702.28;6004965;28;20297;-70
2022/04/15 03:41:20;;;;;;;9.83;4.90;;;;;;;7.24;84.84;101704.91;6005018;28;20528;-70
2022/04/15 03:44:16;;;;;;;11.65;5.03;;;;;;;7.23;84.84;101705.88;6007097;28;20089;-69
2022/04/15 03:47:11;;;;;;;11.00;5.43;;;;;;;7.20;85.06;101707.75;6016014;28;20042;-70
2022/04/15 03:50:08;;;;;;;10.07;5.15;;;;;;;7.17;85.86;101710.59;6004958;28;20405;-70
2022/04/15 03:53:03;;;;;;;9.50;4.00;;;;;;;7.14;85.08;101713.44;6004648;28;20070;-72
2022/04/15 03:55:58;;;;;;;11.23;3.80;;;;;;;7.17;85.69;101717.69;6005088;28;20525;-71
2022/04/15 03:58:54;;;;;;;11.60;3.90;;;;;;;7.09;85.89;101715.50;6004567;28;20049;-69
2022/04/15 04:01:49;;;;;;;8.90;4.17;;;;;;;7.11;86.89;101724.19;6004605;28;20039;-70
2022/04/15 04:04:44;;;;;;;12.70;4.70;;;;;;;7.05;86.67;101724.59;6004994;28;20476;-69
2022/04/15 04:07:40;;;;;;;9.80;4.20;;;;;;;7.03;86.76;101715.94;6004407;28;20047;-69
2022/04/15 04:10:36;;;;;;;12.30;5.05;;;;;;;7.12;86.43;101722.41;6004013;28;20449;-70
2022/04/15 04:13:31;;;;;;;9.32;4.20;;;;;;;7.11;86.72;101718.06;6004234;28;20093;-70
2022/04/15 04:16:26;;;;;;;10.00;4.43;;;;;;;7.12;86.62;101723.22;6005225;28;20486;-71
2022/04/15 04:19:22;;;;;;;10.47;5.00;;;;;;;7.17;86.86;101731.69;6004200;28;20093;-70
2022/04/15 04:22:17;;;;;;;12.07;6.27;;;;;;;7.07;86.27;101720.03;6003768;28;20066;-70
2022/04/15 04:25:12;;;;;;;11.27;5.37;;;;;;;7.13;86.58;101724.09;6004629;28;20398;-70
2022/04/15 04:28:07;;;;;;;9.73;5.10;;;;;;;7.20;87.25;101734.13;6004053;28;20039;-70
2022/04/15 04:31:03;;;;;;;11.13;5.57;;;;;;;7.13;87.28;101726.72;6003755;28;20037;-71
2022/04/15 04:33:58;;;;;;;11.87;6.17;;;;;;;7.07;87.37;101727.09;6004206;28;20050;-70
2022/04/15 04:36:53;;;;;;;11.03;5.60;;;;;;;7.06;87.45;101742.09;6004491;28;20292;-70
2022/04/15 04:39:49;;;;;;;12.33;6.13;;;;;;;7.01;88.78;101749.44;6003852;28;20074;-70
2022/04/15 04:42:45;;;;;;;13.30;5.90;;;;;;;6.95;88.17;101749.84;6003256;28;20043;-70
2022/04/15 04:45:40;;;;;;;15.73;6.55;;;;;;;6.91;88.94;101752.75;6010541;28;20043;-70
2022/04/15 04:48:36;;;;;;;12.83;5.93;;;;;;;6.87;90.43;101754.78;6003768;28;20038;-70
2022/04/15 04:51:31;;;;;;;14.35;6.45;;;;;;;6.87;90.96;101760.03;5985704;28;20758;-70
2022/04/15 04:54:27;;;;;;;14.93;6.90;;;;;;;6.80;91.09;101769.25;5986822;28;20046;-70
2022/04/15 04:57:22;;;;;;;14.07;6.38;;;;;;;6.78;92.21;101768.50;6004752;28;20034;-71
2022/04/15 05:00:17;;;;;;;11.80;5.90;;;;;;;6.79;92.95;101772.84;6002901;28;20046;-71
2022/04/15 05:03:13;;;;;;;13.55;5.65;;;;;;;6.90;93.03;101777.44;6008252;28;20033;-71
2022/04/15 05:06:08;;;;;;;11.53;5.90;;;;;;;6.77;93.00;101780.00;6002980;28;20038;-72
2022/04/15 05:09:03;;;;;;;13.90;5.90;;;;;;;6.64;93.81;101780.84;6003781;28;20395;-70
2022/04/15 05:11:59;;;;;;;15.47;6.60;;;;;;;6.62;93.84;101788.84;6002604;28;20477;-73
2022/04/15 05:14:54;;;;;;;13.37;6.47;;;;;;;6.66;94.31;101790.34;6002880;28;20363;-71
2022/04/15 05:17:49;;;;;;;15.23;6.83;;;;;;;6.62;94.72;101786.22;6003524;28;20030;-71
2022/04/15 05:20:45;;;;;;;14.03;6.20;;;;;;;6.58;94.19;101789.97;6003099;28;20030;-72
2022/04/15 05:23:40;;;;;;;11.90;5.50;;;;;;;6.58;94.04;101792.59;6003408;28;20453;-72
2022/04/15 05:26:36;;;;;;;11.43;5.50;;;;;;;6.65;94.57;101798.38;6002091;28;20414;-71
2022/04/15 05:29:32;;;;;;;13.27;4.75;;;;;;;6.63;94.47;101806.38;6002778;28;20030;-71
2022/04/15 05:32:27;;;;;;;10.15;5.18;;;;;;;6.70;94.03;101802.41;6001368;28;20034;-72
2022/04/15 05:35:23;;;;;;;10.20;4.77;;;;;;;6.73;94.19;101799.59;6002879;28;20062;-71
2022/04/15 05:38:18;;;;;;;10.77;5.00;;;;;;;6.69;94.68;101805.13;6003046;28;20501;-72
2022/04/15 05:41:14;;;;;;;14.70;5.15;;;;;;;6.72;93.98;101804.94;6002290;28;20170;-71
2022/04/15 05:44:12;;;;;;;10.17;5.53;;;;;;;6.74;93.54;101809.16;6003623;28;20406;-72
2022/04/15 05:47:08;;;;;;;13.63;5.22;;;;;;;6.75;93.73;101805.59;6013148;28;20474;-72
2022/04/15 05:50:04;;;;;;;9.45;4.40;;;;;;;6.75;93.04;101813.50;6000637;28;20069;-71
2022/04/15 05:52:59;;;;;;;10.90;4.93;;;;;;;6.78;93.06;101820.38;6002727;28;20035;-71
2022/04/15 05:55:56;;;;;;;10.77;5.10;;;;;;;6.82;92.61;101817.44;6002743;28;20097;-72
2022/04/15 05:58:52;;;;;;;12.07;5.20;;;;;;;6.86;92.27;101821.59;6002628;28;20278;-71
2022/04/15 06:01:48;;;;;;;10.27;4.63;;;;;;;6.88;92.28;101830.25;6001885;28;20088;-71
2022/04/15 06:04:43;;;;;;;13.55;5.15;;;;;;;6.91;92.30;101824.81;6002318;28;20125;-71
2022/04/15 06:07:38;;;;;;;13.37;5.50;;;;;;;6.95;92.59;101823.69;6002737;28;20042;-71
2022/04/15 06:10:34;;;;;;;14.90;6.80;;;;;;;7.01;92.10;101823.28;6000773;28;20038;-71
2022/04/15 06:13:29;;;;;;;20.58;7.47;;;;;;;7.12;91.87;101831.38;6001441;28;20436;-71
2022/04/15 06:16:31;;;;;;;17.30;7.03;;;;;;;7.21;91.98;101832.59;6002155;28;20050;-71
2022/04/15 06:19:27;;;;;;;17.63;7.40;;;;;;;7.16;91.70;101839.94;6002429;28;20030;-71
2022/04/15 06:22:22;;;;;;;16.70;8.50;;;;;;;7.19;91.03;101845.88;6001354;28;20023;-71
2022/04/15 06:25:17;;;;;;;17.37;7.40;;;;;;;7.28;91.37;101841.81;6001761;28;20046;-71
2022/04/15 06:28:13;;;;;;;14.90;6.90;;;;;;;7.34;91.38;101840.59;6002514;28;20720;-71
2022/04/15 06:31:08;;;;;;;17.67;6.93;;;;;;;7.58;89.67;101839.00;6001666;28;20266;-71
2022/04/15 06:34:04;;;;;;;13.70;5.70;;;;;;;7.64;89.61;101849.16;6001893;28;20471;-71
2022/04/15 06:36:59;;;;;;;14.03;6.17;;;;;;;7.70;88.59;101843.47;6001817;28;20037;-72
2022/04/15 06:39:54;;;;;;;10.27;5.17;;;;;;;7.76;87.63;101848.38;6002561;28;20298;-71
2022/04/15 06:42:50;;;;;;;10.93;5.10;;;;;;;7.87;87.19;101845.88;6001667;28;20042;-71
2022/04/15 06:45:45;;;;;;;11.30;4.83;;;;;;;7.90;86.72;101850.09;6014892;28;20295;-71
2022/04/15 06:48:40;;;;;;;9.13;4.87;;;;;;;7.97;85.81;101848.72;6001969;28;20174;-71
2022/04/15 06:51:36;;;;;;;12.07;5.00;;;;;;;8.05;85.56;101847.28;6000187;28;20038;-71
2022/04/15 06:54:31;;;;;;;10.17;4.60;;;;;;;8.12;85.38;101843.31;6000907;28;20079;-71
2022/04/15 06:57:26;;;;;;;10.68;5.00;;;;;;;8.24;85.40;101865.41;6002298;28;20372;-71
2022/04/15 07:00:22;;;;;;;9.82;4.95;;;;;;;8.14;84.26;101859.03;6000778;28;20039;-71
2022/04/15 07:03:17;;;;;;;10.07;4.65;;;;;;;7.98;83.82;101864.50;6001900;28;20038;-71
2022/04/15 07:06:13;;;;;;;10.07;4.20;;;;;;;8.13;83.76;101878.47;6001315;28;20042;-71
2022/04/15 07:09:08;;;;;;;8.83;4.30;;;;;;;8.19;83.77;101878.06;5998197;28;20092;-72
2022/04/15 07:12:04;;;;;;;11.00;4.10;;;;;;;8.23;82.31;101863.72;5999783;28;20031;-72
2022/04/15 07:15:00;;;;;;;11.48;4.72;;;;;;;8.20;82.43;101863.91;5999500;28;20057;-73
2022/04/15 07:17:56;;;;;;;10.50;4.40;;;;;;;8.40;81.54;101876.66;6001779;28;20038;-72
2022/04/15 07:20:51;;;;;;;8.52;4.32;;;;;;;8.58;82.32;101869.28;6000532;28;20039;-71
2022/04/15 07:23:46;;;;;;;8.40;3.67;;;;;;;8.67;80.86;101872.13;6001409;28;20073;-72
2022/04/15 07:26:42;;;;;;;8.98;3.65;;;;;;;8.76;80.45;101865.38;6002003;28;20107;-69
2022/04/15 07:29:38;;;;;;;9.30;3.90;;;;;;;8.89;80.50;101874.13;6001764;28;20038;-71
2022/04/15 07:32:33;;;;;;;8.02;3.70;;;;;;;8.87;80.66;101884.00;6005207;28;20446;-70
2022/04/15 07:35:28;;;;;;;9.98;4.13;;;;;;;8.82;80.05;101886.97;6004629;28;20502;-71
2022/04/15 07:38:24;;;;;;;8.93;3.60;;;;;;;8.78;79.98;101887.25;6004262;28;20027;-71
2022/04/15 07:41:19;;;;;;;8.80;3.87;;;;;;;8.65;79.90;101892.56;5985324;28;20337;-71
2022/04/15 07:44:15;;;;;;;9.88;3.72;;;;;;;8.71;79.44;101896.59;6005741;28;20063;-70
2022/04/15 07:47:10;;;;;;;8.75;4.20;;;;;;;8.80;80.66;101902.09;6000301;28;20090;-70
2022/04/15 07:50:06;;;;;;;9.27;4.03;;;;;;;8.84;79.76;101902.72;6000687;28;20399;-71
2022/04/15 07:53:01;;;;;;;7.68;3.58;;;;;;;8.83;79.64;101898.41;6000445;28;20348;-71
2022/04/15 07:55:57;;;;;;;8.65;3.58;;;;;;;8.84;79.82;101913.28;6004131;28;20070;-70
2022/04/15 07:58:52;;;;;;;7.40;3.40;;;;;;;8.78;79.46;101909.28;6000385;28;20092;-70
2022/04/15 08:01:48;;;;;;;9.25;3.97;;;;;;;8.74;80.07;101918.38;5998778;28;20463;-71
2022/04/15 08:04:43;;;;;;;6.93;3.57;;;;;;;8.77;79.64;101926.13;6001998;28;20470;-71
2022/04/15 08:07:39;;;;;;;9.38;3.83;;;;;;;8.97;80.15;101914.13;6001601;28;20277;-70
2022/04/15 08:10:34;;;;;;;8.00;3.47;;;;;;;9.17;78.71;101913.59;6002074;28;20043;-70
2022/04/15 08:13:30;;;;;;;8.87;3.47;;;;;;;9.34;78.14;101915.94;6002096;28;20038;-71
2022/04/15 08:16:25;;;;;;;7.03;3.40;;;;;;;9.43;77.91;101923.19;6002958;28;20501;-72
2022/04/15 08:19:21;;;;;;;7.35;3.13;;;;;;;9.50;77.17;101931.56;6000827;28;20070;-69
2022/04/15 08:22:16;;;;;;;7.70;3.03;;;;;;;9.42;76.74;101928.59;5990011;28;20031;-71
2022/04/15 08:25:12;;;;;;;7.63;3.55;;;;;;;9.26;76.90;101933.28;6002743;28;20030;-70
2022/04/15 08:28:07;;;;;;;8.68;3.80;;;;;;;9.23;78.72;101938.78;6002104;28;20043;-70
2022/04/15 08:31:02;;;;;;;7.00;3.37;;;;;;;9.16;78.02;101943.66;5999015;28;20035;-70
2022/04/15 08:33:58;;;;;;;11.17;3.67;;;;;;;9.25;78.29;101939.53;6002747;28;20447;-71
2022/04/15 08:36:54;;;;;;;6.93;3.35;;;;;;;9.04;78.98;101943.66;6000915;28;20328;-71
2022/04/15 08:39:49;;;;;;;10.27;4.20;;;;;;;8.98;79.38;101947.59;6002573;28;20035;-71
2022/04/15 08:42:45;;;;;;;6.20;3.13;;;;;;;8.94;80.04;101962.81;6000526;28;20050;-71
2022/04/15 08:45:41;;;;;;;7.40;3.75;;;;;;;8.87;79.53;101960.69;6001248;28;20534;-71
2022/04/15 08:48:38;;;;;;;7.80;4.10;;;;;;;8.81;79.79;101959.31;6003886;28;20061;-71
2022/04/15 08:51:35;;;;;;;6.60;3.45;;;;;;;8.77;80.10;101965.78;6003345;28;20055;-71
2022/04/15 08:54:31;;;;;;;7.40;3.55;;;;;;;8.94;80.64;101975.22;6003616;28;20048;-70
2022/04/15 08:57:27;;;;;;;9.65;3.78;;;;;;;9.03;80.09;101971.94;6003020;28;20054;-70
2022/04/15 09:00:24;;;;;;;7.50;3.92;;;;;;;9.14;80.18;101979.97;5997239;28;20037;-70
2022/04/15 09:03:19;;;;;;;11.77;4.32;;;;;;;9.17;79.32;101979.75;6001735;28;20035;-71
2022/04/15 09:06:15;;;;;;;9.43;3.90;;;;;;;9.38;79.79;101986.22;6001813;28;20026;-70
2022/04/15 09:09:12;;;;;;;8.55;3.97;;;;;;;9.64;78.00;101973.81;5996807;28;20386;-70
2022/04/15 09:12:14;;;;;;;8.90;3.50;;;;;;;9.99;76.36;101979.22;6000064;28;20054;-70
2022/04/15 09:15:11;;;;;;;8.38;3.70;;;;;;;10.22;75.65;101978.41;6003017;28;20066;-71
2022/04/15 09:18:07;;;;;;;6.55;2.90;;;;;;;10.38;73.27;101975.47;5990455;28;20055;-70
2022/04/15 09:21:24;;;;;;;5.73;3.30;;;;;;;10.59;73.42;101977.38;6002880;28;20127;-70
2022/04/15 09:24:32;;;;;;;7.30;3.10;;;;;;;10.39;73.20;101985.97;6002254;28;20266;-71
2022/04/15 09:27:28;;;;;;;8.07;3.25;;;;;;;10.59;73.62;101980.03;6002682;28;20041;-71
2022/04/15 09:30:34;;;;;;;8.50;3.13;;;;;;;10.48;73.63;101982.63;6002160;28;20058;-70
2022/04/15 09:33:29;;;;;;;7.50;3.38;;;;;;;10.55;73.34;101978.56;6002095;28;20034;-70
2022/04/15 09:36:26;;;;;;;7.20;3.20;;;;;;;10.32;74.25;101976.78;5987744;28;20474;-71
2022/04/15 09:39:21;;;;;;;8.80;3.45;;;;;;;10.37;73.14;101985.25;6002388;28;20467;-70
2022/04/15 09:42:16;;;;;;;5.57;3.00;;;;;;;10.50;74.45;101985.16;6001828;28;20030;-72
2022/04/15 09:45:22;;;;;;;7.67;3.33;;;;;;;10.59;73.70;101977.38;6009979;28;20080;-72
2022/04/15 09:48:17;;;;;;;9.07;3.42;;;;;;;10.95;72.19;101970.25;6001774;28;20037;-72
2022/04/15 09:51:19;;;;;;;9.00;3.80;;;;;;;11.52;70.89;101971.03;5982311;28;20397;-70
2022/04/15 09:54:22;;;;;;;8.02;3.00;;;;;;;11.82;70.09;101983.72;6000195;28;20062;-72
2022/04/15 09:57:18;;;;;;;6.53;3.25;;;;;;;12.10;69.14;101974.34;6000489;28;20054;-71
2022/04/15 10:00:18;;;;;;;8.60;3.60;;;;;;;12.44;67.83;101986.56;6000986;28;20031;-72
2022/04/15 10:03:19;;;;;;;6.93;3.45;;;;;;;12.41;67.09;101985.03;6001055;28;20714;-71
2022/04/15 10:06:15;;;;;;;7.63;3.08;;;;;;;12.77;67.42;101993.56;6000887;28;20117;-72
2022/04/15 10:09:11;;;;;;;9.52;3.05;;;;;;;12.47;67.56;101992.47;5983498;28;20497;-71
2022/04/15 10:12:07;;;;;;;9.32;4.15;;;;;;;12.37;67.66;101991.56;6001510;28;20038;-71
2022/04/15 10:15:03;;;;;;;9.00;3.45;;;;;;;12.45;66.36;102001.56;5984801;28;20038;-71
2022/04/15 10:18:02;;;;;;;7.75;3.15;;;;;;;12.63;65.85;102008.03;6000519;28;20039;-70
2022/04/15 10:21:01;;;;;;;7.07;2.97;;;;;;;12.57;66.46;102005.88;6001643;28;20041;-71
2022/04/15 10:23:58;;;;;;;7.75;2.75;;;;;;;12.47;66.17;101996.97;6001956;28;20031;-70
2022/04/15 10:26:59;;;;;;;7.13;2.95;;;;;;;12.80;66.23;101994.13;5982878;28;20035;-71
2022/04/15 10:30:20;;;;;;;8.80;4.43;;;;;;;12.44;66.85;101999.88;5994870;28;20427;-72
2022/04/15 10:33:32;;;;;;;10.43;4.00;;;;;;;12.05;68.58;101996.00;6000180;28;20031;-73
2022/04/15 10:36:31;;;;;;;8.35;3.90;;;;;;;11.88;69.40;102000.00;5999615;28;20046;-71
2022/04/15 10:39:27;;;;;;;9.63;3.97;;;;;;;11.79;69.66;102000.75;5994880;28;20039;-69
2022/04/15 10:42:31;;;;;;;11.23;4.65;;;;;;;11.66;70.55;102002.63;5999821;28;20427;-70
2022/04/15 10:45:34;;;;;;;6.93;3.50;;;;;;;11.74;70.64;102008.22;5999621;28;20505;-69
2022/04/15 10:48:31;;;;;;;8.70;3.22;;;;;;;11.69;69.55;102013.06;5999648;28;20070;-72
2022/04/15 10:51:31;;;;;;;7.93;3.85;;;;;;;12.04;70.50;102020.06;5999672;28;20755;-70
2022/04/15 10:54:48;;;;;;;5.38;2.78;;;;;;;12.40;69.19;102023.22;6000381;28;20038;-70
2022/04/15 10:57:46;;;;;;;6.55;3.30;;;;;;;12.56;68.51;102017.47;5999935;28;20390;-70
2022/04/15 11:04:02;;;;;;;7.20;3.30;;;;;;;12.77;67.56;102017.53;5999578;28;20046;-71
2022/04/15 11:06:59;;;;;;;7.18;2.92;;;;;;;12.96;66.85;102010.50;6001919;28;20035;-71
2022/04/15 11:09:59;;;;;;;8.65;3.33;;;;;;;12.67;66.75;102025.41;5984864;28;20057;-71
2022/04/15 11:12:54;;;;;;;7.78;3.60;;;;;;;12.40;67.09;102019.72;5984713;28;20058;-71
2022/04/15 11:16:18;;;;;;;8.35;3.55;;;;;;;12.33;67.52;102021.19;6003568;28;20035;-70
2022/04/15 11:19:24;;;;;;;10.27;3.78;;;;;;;12.52;66.84;102016.91;6003967;28;20039;-70
2022/04/15 11:22:24;;;;;;;8.05;3.35;;;;;;;12.69;66.11;102020.81;6002366;28;20486;-71
2022/04/15 11:25:20;;;;;;;8.60;3.45;;;;;;;12.50;67.83;102024.16;5987148;28;20037;-71
2022/04/15 11:28:17;;;;;;;9.50;3.50;;;;;;;12.31;68.60;102033.78;6004142;28;20038;-70
2022/04/15 11:31:26;;;;;;;7.10;3.70;;;;;;;12.13;68.87;102035.25;5983837;28;20046;-70
2022/04/15 11:34:21;;;;;;;10.73;4.10;;;;;;;11.73;69.43;102030.47;6004440;28;20046;-69
2022/04/15 11:37:16;;;;;;;13.67;4.20;;;;;;;11.57;70.33;102034.41;6004267;28;20046;-69
2022/04/15 11:40:12;;;;;;;8.10;4.47;;;;;;;11.48;71.81;102041.28;5986308;28;20065;-69
2022/04/15 11:43:08;;;;;;;12.43;3.97;;;;;;;11.41;71.87;102048.06;5984780;28;20274;-70
2022/04/15 11:46:08;;;;;;;10.40;3.78;;;;;;;11.36;72.81;102036.91;6007674;28;20050;-69
2022/04/15 11:49:04;;;;;;;10.90;4.53;;;;;;;11.45;72.64;102044.19;6003449;28;20039;-69
2022/04/15 11:52:00;;;;;;;11.18;5.03;;;;;;;11.88;71.70;102042.53;6003122;28;20046;-69
2022/04/15 11:54:58;;;;;;;12.05;4.45;;;;;;;11.74;71.59;102045.44;6004440;28;20035;-70
2022/04/15 11:57:53;;;;;;;13.32;4.47;;;;;;;11.68;71.03;102045.91;6004008;28;20474;-70
2022/04/15 12:00:57;;;;;;;9.83;4.57;;;;;;;11.78;71.18;102036.25;6002793;28;20039;-70
2022/04/15 12:03:52;;;;;;;10.73;4.82;;;;;;;11.69;71.67;102047.59;6004229;28;20092;-71
2022/04/15 12:06:48;;;;;;;14.20;5.10;;;;;;;11.86;71.92;102046.28;6003455;28;20038;-70
2022/04/15 12:09:47;;;;;;;10.48;4.50;;;;;;;11.68;71.81;102050.38;6003802;28;20035;-70
2022/04/15 12:12:42;;;;;;;15.35;5.07;;;;;;;11.56;71.55;102052.16;6003295;28;20048;-70
2022/04/15 12:15:38;;;;;;;9.40;4.72;;;;;;;11.90;72.13;102045.09;5987692;28;20075;-70
2022/04/15 12:18:34;;;;;;;10.93;6.10;;;;;;;12.15;70.51;102049.28;5993501;28;20037;-70
2022/04/15 12:21:31;;;;;;;8.75;4.13;;;;;;;12.07;69.75;102062.31;6004303;28;20038;-71
2022/04/15 12:24:30;;;;;;;10.80;5.20;;;;;;;12.14;71.50;102059.06;6004443;28;20058;-71
2022/04/15 12:27:33;;;;;;;11.40;4.82;;;;;;;11.98;71.49;102057.75;6003213;28;20031;-71
2022/04/15 12:30:39;;;;;;;11.85;5.35;;;;;;;11.69;71.70;102058.25;6002846;28;20077;-71
2022/04/15 12:33:45;;;;;;;10.68;5.55;;;;;;;11.53;72.42;102063.03;6004031;28;20539;-71
2022/04/15 12:36:42;;;;;;;12.82;5.43;;;;;;;11.44;72.44;102078.84;6004379;28;20039;-71
2022/04/15 12:39:51;;;;;;;13.18;5.95;;;;;;;11.38;73.58;102074.84;6003525;28;20113;-71
2022/04/15 12:42:49;;;;;;;10.77;5.25;;;;;;;11.30;73.02;102074.59;5999456;28;20540;-71
2022/04/15 12:45:48;;;;;;;12.68;6.43;;;;;;;11.23;73.90;102081.31;6002531;28;20410;-70
2022/04/15 12:48:50;;;;;;;14.90;7.85;;;;;;;11.50;72.74;102079.19;6000245;28;20039;-70
2022/04/15 12:51:45;;;;;;;11.30;5.15;;;;;;;11.39;72.69;102081.84;6000971;28;20042;-71
2022/04/15 12:54:58;;;;;;;12.17;5.83;;;;;;;11.29;73.91;102091.47;6006750;28;20031;-71
2022/04/15 12:57:53;;;;;;;17.58;5.95;;;;;;;11.07;73.82;102086.94;6002071;28;20027;-70
2022/04/15 13:00:51;;;;;;;13.68;5.50;;;;;;;11.08;73.79;102087.78;5998194;28;20037;-71
2022/04/15 13:03:53;;;;;;;15.05;6.63;;;;;;;11.29;74.28;102096.78;6003357;28;20035;-70
2022/04/15 13:06:49;;;;;;;9.82;4.25;;;;;;;11.63;72.24;102093.22;6002363;28;20073;-71
2022/04/15 13:09:45;;;;;;;12.48;5.13;;;;;;;11.66;72.07;102095.66;6002576;28;20114;-71
2022/04/15 13:12:40;;;;;;;14.45;6.45;;;;;;;11.46;72.15;102101.66;5996667;28;20031;-71
2022/04/15 13:15:36;;;;;;;12.73;5.53;;;;;;;11.23;73.55;102098.09;6002129;28;20493;-70
2022/04/15 13:18:32;;;;;;;12.77;6.20;;;;;;;11.35;73.78;102106.94;5999158;28;20121;-71
2022/04/15 13:21:27;;;;;;;11.60;5.80;;;;;;;11.15;73.61;102102.28;5997847;28;20069;-69
2022/04/15 13:24:23;;;;;;;12.90;5.80;;;;;;;11.00;73.71;102106.09;5997008;28;20034;-69
2022/04/15 13:27:18;;;;;;;11.05;5.47;;;;;;;10.98;73.56;102113.34;6011583;28;20030;-71
2022/04/15 13:30:14;;;;;;;10.33;5.80;;;;;;;10.88;74.23;102105.19;6003017;28;20129;-69
2022/04/15 13:33:10;;;;;;;17.92;6.63;;;;;;;10.87;74.52;102111.47;6001735;28;20019;-70
2022/04/15 13:36:05;;;;;;;20.38;7.60;;;;;;;10.73;74.46;102115.13;6000734;28;20081;-70
2022/04/15 13:39:03;;;;;;;13.30;5.70;;;;;;;10.91;73.75;102112.09;6001321;28;20034;-71
2022/04/15 13:42:01;;;;;;;12.98;6.07;;;;;;;11.03;73.52;102111.19;5999832;28;20090;-70
2022/04/15 13:44:56;;;;;;;13.32;5.93;;;;;;;11.29;73.61;102118.03;6002803;28;20454;-69
2022/04/15 13:47:51;;;;;;;11.38;5.45;;;;;;;11.16;72.61;102117.25;6002422;28;20090;-71